createdAt,value
2018-06-16T00:01:45.528Z,17.65
2018-06-16T00:04:14.661Z,17.63
2018-06-16T00:06:43.792Z,17.56
2018-06-16T00:09:12.823Z,17.48
2018-06-16T00:11:41.879Z,17.41
2018-06-16T00:14:10.711Z,17.33
2018-06-16T00:16:39.825Z,17.29
2018-06-16T00:19:08.947Z,17.26
2018-06-16T00:21:38.187Z,17.25
2018-06-16T00:24:06.984Z,17.25
2018-06-16T00:26:36.340Z,17.26
2018-06-16T00:29:05.417Z,17.24
2018-06-16T00:31:34.320Z,17.20
2018-06-16T00:34:03.777Z,17.20
2018-06-16T00:36:33.218Z,17.18
2018-06-16T00:39:02.130Z,17.17
2018-06-16T00:41:31.413Z,17.16
2018-06-16T00:44:00.774Z,17.17
2018-06-16T00:46:29.865Z,17.19
2018-06-16T00:48:59.054Z,17.19
2018-06-16T00:51:27.846Z,17.20
2018-06-16T00:53:56.655Z,17.19
2018-06-16T00:56:25.834Z,17.17
2018-06-16T00:58:55.087Z,17.15
2018-06-16T01:01:24.598Z,17.11
2018-06-16T01:03:53.825Z,17.10
2018-06-16T01:06:22.655Z,17.10
2018-06-16T01:08:51.731Z,17.11
2018-06-16T01:11:20.915Z,17.11
2018-06-16T01:13:49.808Z,17.09
2018-06-16T01:16:18.988Z,17.02
2018-06-16T01:18:48.143Z,16.98
2018-06-16T01:21:17.525Z,16.96
2018-06-16T01:23:46.851Z,16.93
2018-06-16T01:26:15.811Z,16.92
2018-06-16T01:28:45.000Z,16.93
2018-06-16T01:31:14.103Z,16.93
2018-06-16T01:33:43.678Z,16.92
2018-06-16T01:36:12.489Z,16.90
2018-06-16T01:38:41.672Z,16.87
2018-06-16T01:41:10.512Z,16.86
2018-06-16T01:43:40.005Z,16.84
2018-06-16T01:46:09.007Z,16.83
2018-06-16T01:48:38.109Z,16.83
2018-06-16T01:51:07.292Z,16.83
2018-06-16T01:53:36.135Z,16.80
2018-06-16T01:56:05.284Z,16.83
2018-06-16T01:58:34.189Z,16.82
2018-06-16T02:01:03.144Z,16.83
2018-06-16T02:03:32.605Z,16.83
2018-06-16T02:06:02.051Z,16.83
2018-06-16T02:08:31.505Z,16.83
2018-06-16T02:11:00.608Z,16.81
2018-06-16T02:13:30.087Z,16.80
2018-06-16T02:15:59.274Z,16.79
2018-06-16T02:18:28.404Z,16.78
2018-06-16T02:20:57.571Z,16.75
2018-06-16T02:23:26.764Z,16.74
2018-06-16T02:25:55.944Z,16.73
2018-06-16T02:28:25.050Z,16.72
2018-06-16T02:30:54.205Z,16.70
2018-06-16T02:33:23.040Z,16.69
2018-06-16T02:35:52.047Z,16.69
2018-06-16T02:38:21.842Z,16.69
2018-06-16T02:40:51.429Z,16.70
2018-06-16T02:43:20.560Z,16.69
2018-06-16T02:45:49.628Z,16.69
2018-06-16T02:48:19.326Z,16.67
2018-06-16T02:50:48.470Z,16.66
2018-06-16T02:53:17.759Z,16.64
2018-06-16T02:55:46.926Z,16.64
2018-06-16T02:58:15.780Z,16.62
2018-06-16T03:00:45.077Z,16.56
2018-06-16T03:03:15.055Z,16.48
2018-06-16T03:05:44.309Z,16.46
2018-06-16T03:08:13.797Z,16.46
2018-06-16T03:10:43.299Z,16.48
2018-06-16T03:13:12.129Z,16.50
2018-06-16T03:15:41.277Z,16.52
2018-06-16T03:18:10.758Z,16.51
2018-06-16T03:20:40.073Z,16.52
2018-06-16T03:23:09.335Z,16.53
2018-06-16T03:25:38.588Z,16.53
2018-06-16T03:28:07.800Z,16.55
2018-06-16T03:30:37.583Z,16.56
2018-06-16T03:33:07.114Z,16.56
2018-06-16T03:35:36.502Z,16.57
2018-06-16T03:38:05.456Z,16.57
2018-06-16T03:40:34.619Z,16.57
2018-06-16T03:43:04.255Z,16.54
2018-06-16T03:45:33.511Z,16.54
2018-06-16T03:48:02.557Z,16.55
2018-06-16T03:50:32.163Z,16.56
2018-06-16T03:53:15.595Z,16.55
2018-06-16T03:55:44.911Z,16.54
2018-06-16T03:58:14.185Z,16.51
2018-06-16T04:00:43.573Z,16.51
2018-06-16T04:03:12.456Z,16.50
2018-06-16T04:05:41.367Z,16.48
2018-06-16T04:08:10.775Z,16.29
2018-06-16T04:10:39.932Z,16.23
2018-06-16T04:13:09.461Z,16.10
2018-06-16T04:15:38.704Z,16.06
2018-06-16T04:18:07.672Z,16.09
2018-06-16T04:20:36.531Z,16.06
2018-06-16T04:23:06.157Z,16.09
2018-06-16T04:25:35.322Z,16.07
2018-06-16T04:28:05.256Z,16.04
2018-06-16T04:30:34.416Z,16.01
2018-06-16T04:33:03.926Z,16.01
2018-06-16T04:35:33.129Z,15.97
2018-06-16T04:38:02.788Z,15.98
2018-06-16T04:40:31.945Z,16.03
2018-06-16T04:43:01.091Z,16.09
2018-06-16T04:45:29.958Z,16.17
2018-06-16T04:47:59.275Z,16.23
2018-06-16T04:50:28.483Z,16.29
2018-06-16T04:52:58.242Z,16.36
2018-06-16T04:55:27.435Z,16.41
2018-06-16T04:57:56.648Z,16.47
2018-06-16T05:00:25.765Z,16.53
2018-06-16T05:02:55.342Z,16.56
2018-06-16T05:05:24.315Z,16.61
2018-06-16T05:07:53.479Z,16.63
2018-06-16T05:10:22.328Z,16.68
2018-06-16T05:12:51.676Z,16.73
2018-06-16T05:15:20.604Z,16.77
2018-06-16T05:17:49.895Z,16.82
2018-06-16T05:20:19.190Z,16.86
2018-06-16T05:22:48.116Z,16.91
2018-06-16T05:25:17.188Z,16.97
2018-06-16T05:27:46.194Z,17.04
2018-06-16T05:30:15.396Z,17.12
2018-06-16T05:32:44.905Z,17.21
2018-06-16T05:35:14.191Z,17.28
2018-06-16T05:37:43.505Z,17.37
2018-06-16T05:40:13.568Z,17.45
2018-06-16T05:42:43.149Z,17.50
2018-06-16T05:45:12.123Z,17.58
2018-06-16T05:47:40.988Z,17.64
2018-06-16T05:50:09.890Z,17.67
2018-06-16T05:52:38.816Z,17.68
2018-06-16T05:55:08.005Z,17.68
2018-06-16T05:57:37.248Z,17.74
2018-06-16T06:00:08.548Z,17.79
2018-06-16T06:02:39.156Z,17.87
2018-06-16T06:05:09.678Z,17.94
2018-06-16T06:07:39.985Z,18.01
2018-06-16T06:10:10.069Z,18.09
2018-06-16T06:12:40.381Z,18.12
2018-06-16T06:15:09.670Z,18.20
2018-06-16T06:17:43.801Z,18.28
2018-06-16T06:20:13.438Z,18.34
2018-06-16T06:22:42.406Z,18.38
2018-06-16T06:25:11.432Z,18.41
2018-06-16T06:27:40.855Z,18.50
2018-06-16T06:30:10.140Z,18.58
2018-06-16T06:32:39.915Z,18.64
2018-06-16T06:35:10.196Z,18.66
2018-06-16T06:37:39.879Z,18.70
2018-06-16T06:40:09.651Z,18.77
2018-06-16T06:42:39.092Z,18.80
2018-06-16T06:45:08.154Z,18.86
2018-06-16T06:47:37.183Z,18.91
2018-06-16T06:50:06.966Z,18.99
2018-06-16T06:52:36.313Z,19.06
2018-06-16T06:55:05.744Z,19.13
2018-06-16T06:57:34.865Z,19.20
2018-06-16T07:00:03.913Z,19.26
2018-06-16T07:02:33.881Z,19.37
2018-06-16T07:05:02.825Z,19.41
2018-06-16T07:07:32.373Z,19.42
2018-06-16T07:10:01.675Z,19.45
2018-06-16T07:12:30.920Z,19.45
2018-06-16T07:15:00.387Z,19.51
2018-06-16T07:17:29.687Z,19.57
2018-06-16T07:19:59.040Z,19.69
2018-06-16T07:22:29.305Z,19.79
2018-06-16T07:24:58.842Z,19.85
2018-06-16T07:27:28.166Z,19.90
2018-06-16T07:29:57.610Z,19.97
2018-06-16T07:32:27.604Z,20.05
2018-06-16T07:34:57.246Z,20.12
2018-06-16T07:37:27.169Z,20.23
2018-06-16T07:39:56.617Z,20.28
2018-06-16T07:42:25.701Z,20.34
2018-06-16T07:44:55.002Z,20.43
2018-06-16T07:47:23.906Z,20.50
2018-06-16T07:49:54.042Z,20.56
2018-06-16T07:52:23.931Z,20.67
2018-06-16T07:54:53.151Z,20.80
2018-06-16T07:57:22.779Z,20.98
2018-06-16T07:59:52.153Z,21.08
2018-06-16T08:02:21.900Z,21.12
2018-06-16T08:04:51.250Z,21.24
2018-06-16T08:07:21.666Z,21.38
2018-06-16T08:09:50.669Z,21.58
2018-06-16T08:12:21.087Z,21.73
2018-06-16T08:14:51.452Z,21.87
2018-06-16T08:17:20.589Z,22.11
2018-06-16T08:19:50.110Z,22.34
2018-06-16T08:22:20.594Z,22.47
2018-06-16T08:24:50.416Z,22.66
2018-06-16T08:27:19.470Z,22.92
2018-06-16T08:29:49.493Z,23.03
2018-06-16T08:32:19.545Z,23.09
2018-06-16T08:34:48.836Z,23.19
2018-06-16T08:37:18.540Z,23.31
2018-06-16T08:39:47.914Z,23.44
2018-06-16T08:42:16.824Z,23.58
2018-06-16T08:44:45.806Z,23.73
2018-06-16T08:47:15.324Z,23.85
2018-06-16T08:49:44.660Z,23.93
2018-06-16T08:52:13.703Z,23.98
2018-06-16T08:54:43.452Z,24.07
2018-06-16T08:57:12.395Z,24.18
2018-06-16T08:59:41.846Z,24.29
2018-06-16T09:02:10.928Z,24.40
2018-06-16T09:04:40.038Z,24.48
2018-06-16T09:07:08.889Z,24.52
2018-06-16T09:09:39.503Z,24.62
2018-06-16T09:12:09.018Z,24.72
2018-06-16T09:14:37.914Z,24.76
2018-06-16T09:17:07.208Z,24.83
2018-06-16T09:19:36.682Z,24.86
2018-06-16T09:22:05.612Z,24.92
2018-06-16T09:24:34.430Z,25.03
2018-06-16T09:27:03.400Z,25.08
2018-06-16T09:29:32.284Z,25.23
2018-06-16T09:32:01.137Z,25.33
2018-06-16T09:34:29.958Z,25.37
2018-06-16T09:36:59.217Z,25.41
2018-06-16T09:39:28.396Z,25.43
2018-06-16T09:41:57.285Z,25.46
2018-06-16T09:44:26.480Z,25.49
2018-06-16T09:46:55.579Z,25.37
2018-06-16T09:49:25.099Z,25.29
2018-06-16T09:51:54.085Z,25.20
2018-06-16T09:54:23.296Z,25.22
2018-06-16T09:56:52.192Z,25.34
2018-06-16T09:59:21.152Z,25.38
2018-06-16T10:01:50.292Z,25.43
2018-06-16T10:04:19.394Z,25.53
2018-06-16T10:06:49.625Z,25.71
2018-06-16T10:09:18.897Z,25.73
2018-06-16T10:11:47.924Z,25.69
2018-06-16T10:14:16.872Z,25.68
2018-06-16T10:16:46.122Z,25.74
2018-06-16T10:19:15.478Z,25.82
2018-06-16T10:21:45.100Z,25.94
2018-06-16T10:24:14.487Z,25.90
2018-06-16T10:26:43.315Z,25.99
2018-06-16T10:29:13.368Z,25.96
2018-06-16T10:31:42.633Z,25.85
2018-06-16T10:34:11.689Z,25.83
2018-06-16T10:36:40.568Z,25.85
2018-06-16T10:39:10.310Z,25.91
2018-06-16T10:41:39.769Z,26.06
2018-06-16T10:44:08.731Z,26.19
2018-06-16T10:46:37.781Z,26.29
2018-06-16T10:49:06.993Z,26.25
2018-06-16T10:51:35.800Z,26.25
2018-06-16T10:54:04.735Z,26.32
2018-06-16T10:59:34.478Z,26.06
2018-06-16T11:02:03.648Z,26.11
2018-06-16T11:04:33.335Z,26.09
2018-06-16T11:07:02.389Z,26.02
2018-06-16T11:09:31.376Z,25.90
2018-06-16T11:12:00.204Z,25.81
2018-06-16T11:14:30.028Z,25.71
2018-06-16T11:16:59.409Z,25.79
2018-06-16T11:19:28.532Z,25.98
2018-06-16T11:21:57.407Z,26.05
2018-06-16T11:24:26.305Z,26.12
2018-06-16T11:26:55.787Z,26.30
2018-06-16T11:29:24.702Z,26.56
2018-06-16T11:31:54.518Z,26.76
2018-06-16T11:34:23.348Z,26.92
2018-06-16T11:36:52.185Z,27.06
2018-06-16T11:39:21.610Z,27.13
2018-06-16T11:41:51.779Z,27.18
2018-06-16T11:44:25.715Z,27.10
2018-06-16T11:46:55.104Z,26.99
2018-06-16T11:49:24.983Z,26.84
2018-06-16T11:51:54.252Z,26.58
2018-06-16T11:54:23.543Z,26.53
2018-06-16T11:56:53.401Z,26.59
2018-06-16T11:59:22.258Z,26.72
2018-06-16T12:01:51.928Z,26.72
2018-06-16T12:04:21.495Z,26.47
2018-06-16T12:06:51.073Z,26.44
2018-06-16T12:09:19.962Z,26.43
2018-06-16T12:11:51.273Z,26.50
2018-06-16T12:14:20.125Z,26.65
2018-06-16T12:16:49.001Z,26.71
2018-06-16T12:19:18.812Z,26.78
2018-06-16T12:21:47.704Z,26.79
2018-06-16T12:24:16.962Z,26.81
2018-06-16T12:26:46.091Z,26.94
2018-06-16T12:29:15.289Z,27.15
2018-06-16T12:31:44.255Z,27.07
2018-06-16T12:34:13.393Z,26.97
2018-06-16T12:36:42.261Z,27.05
2018-06-16T12:39:12.116Z,27.03
2018-06-16T12:41:41.002Z,27.00
2018-06-16T12:44:10.257Z,27.03
2018-06-16T12:46:39.571Z,27.02
2018-06-16T12:49:08.663Z,26.89
2018-06-16T12:51:39.716Z,26.64
2018-06-16T12:54:08.832Z,26.69
2018-06-16T12:56:38.392Z,26.80
2018-06-16T12:59:07.509Z,26.71
2018-06-16T13:01:36.970Z,26.72
2018-06-16T13:04:05.843Z,26.78
2018-06-16T13:06:34.723Z,26.91
2018-06-16T13:09:04.787Z,27.00
2018-06-16T13:11:34.219Z,27.01
2018-06-16T13:14:03.727Z,27.10
2018-06-16T13:16:32.642Z,26.96
2018-06-16T13:19:01.753Z,26.97
2018-06-16T13:21:30.877Z,26.98
2018-06-16T13:24:01.613Z,26.90
2018-06-16T13:26:31.126Z,26.86
2018-06-16T13:29:00.619Z,26.82
2018-06-16T13:31:29.501Z,26.80
2018-06-16T13:33:58.664Z,27.00
2018-06-16T13:36:28.011Z,27.09
2018-06-16T13:38:56.882Z,27.13
2018-06-16T13:41:26.304Z,27.21
2018-06-16T13:43:55.197Z,27.32
2018-06-16T13:46:24.703Z,27.39
2018-06-16T13:48:53.961Z,27.28
2018-06-16T13:51:23.244Z,27.19
2018-06-16T13:53:52.794Z,27.01
2018-06-16T13:56:22.235Z,26.82
2018-06-16T13:58:51.740Z,26.69
2018-06-16T14:01:20.704Z,26.64
2018-06-16T14:03:49.851Z,26.82
2018-06-16T14:06:19.161Z,27.06
2018-06-16T14:08:48.108Z,27.38
2018-06-16T14:11:17.458Z,27.51
2018-06-16T14:13:47.445Z,27.68
2018-06-16T14:16:17.252Z,27.87
2018-06-16T14:18:46.735Z,27.92
2018-06-16T14:21:15.885Z,27.84
2018-06-16T14:23:45.001Z,27.65
2018-06-16T14:26:13.901Z,27.45
2018-06-16T14:28:43.141Z,27.30
2018-06-16T14:31:11.954Z,27.09
2018-06-16T14:33:41.072Z,26.93
2018-06-16T14:36:10.204Z,26.79
2018-06-16T14:38:39.628Z,26.87
2018-06-16T14:41:08.782Z,27.19
2018-06-16T14:43:37.930Z,27.63
2018-06-16T14:46:06.789Z,27.94
2018-06-16T14:48:35.923Z,28.27
2018-06-16T14:51:04.830Z,28.18
2018-06-16T14:53:34.082Z,27.86
2018-06-16T14:56:03.349Z,27.54
2018-06-16T14:58:32.151Z,27.48
2018-06-16T15:01:01.663Z,27.53
2018-06-16T15:03:31.362Z,27.70
2018-06-16T15:06:00.284Z,27.84
2018-06-16T15:08:29.444Z,28.04
2018-06-16T15:10:58.815Z,28.24
2018-06-16T15:13:27.922Z,28.40
2018-06-16T15:15:57.048Z,28.52
2018-06-16T15:18:26.492Z,28.59
2018-06-16T15:20:56.269Z,28.69
2018-06-16T15:23:25.420Z,28.64
2018-06-16T15:25:54.259Z,28.68
2018-06-16T15:28:23.425Z,28.71
2018-06-16T15:30:52.676Z,28.54
2018-06-16T15:33:22.245Z,28.38
2018-06-16T15:35:51.436Z,28.10
2018-06-16T15:38:20.356Z,27.76
2018-06-16T15:40:49.863Z,27.67
2018-06-16T15:43:18.646Z,27.68
2018-06-16T15:45:47.502Z,27.72
2018-06-16T15:48:16.388Z,27.59
2018-06-16T15:50:46.201Z,27.33
2018-06-16T15:53:15.399Z,27.32
2018-06-16T15:55:44.816Z,27.33
2018-06-16T15:58:13.888Z,27.30
2018-06-16T16:00:43.081Z,27.26
2018-06-16T16:03:11.933Z,26.98
2018-06-16T16:05:41.279Z,26.91
2018-06-16T16:08:10.348Z,26.75
2018-06-16T16:10:39.663Z,26.67
2018-06-16T16:13:08.553Z,26.49
2018-06-16T16:15:38.419Z,26.27
2018-06-16T16:18:07.624Z,26.18
2018-06-16T16:20:36.467Z,26.11
2018-06-16T16:23:05.355Z,26.05
2018-06-16T16:25:34.835Z,25.94
2018-06-16T16:28:03.691Z,25.77
2018-06-16T16:30:33.016Z,25.73
2018-06-16T16:33:02.203Z,25.63
2018-06-16T16:35:31.411Z,25.45
2018-06-16T16:38:00.250Z,25.39
2018-06-16T16:40:30.362Z,25.49
2018-06-16T16:42:59.430Z,25.54
2018-06-16T16:45:28.587Z,25.46
2018-06-16T16:47:59.569Z,25.41
2018-06-16T16:50:30.318Z,25.30
2018-06-16T16:53:01.422Z,25.11
2018-06-16T16:55:31.975Z,24.70
2018-06-16T16:58:03.283Z,24.78
2018-06-16T17:00:34.603Z,24.69
2018-06-16T17:03:05.135Z,24.65
2018-06-16T17:05:35.654Z,24.55
2018-06-16T17:08:05.742Z,24.47
2018-06-16T17:10:35.569Z,24.39
2018-06-16T17:13:05.707Z,24.25
2018-06-16T17:15:35.015Z,24.09
2018-06-16T17:18:04.457Z,24.08
2018-06-16T17:20:33.690Z,24.05
2018-06-16T17:23:02.553Z,23.97
2018-06-16T17:25:31.600Z,23.92
2018-06-16T17:28:00.692Z,23.93
2018-06-16T17:30:30.145Z,23.91
2018-06-16T17:32:59.326Z,23.81
2018-06-16T17:35:28.211Z,23.79
2018-06-16T17:37:58.598Z,23.77
2018-06-16T17:40:27.418Z,23.77
2018-06-16T17:42:57.094Z,23.80
2018-06-16T17:45:26.047Z,23.79
2018-06-16T17:47:55.241Z,23.80
2018-06-16T17:50:24.728Z,23.83
2018-06-16T17:52:53.809Z,23.82
2018-06-16T17:55:22.658Z,23.81
2018-06-16T17:57:52.424Z,23.79
2018-06-16T18:00:21.612Z,23.79
2018-06-16T18:02:50.872Z,23.82
2018-06-16T18:05:20.264Z,23.76
2018-06-16T18:07:49.154Z,23.58
2018-06-16T18:10:18.018Z,23.44
2018-06-16T18:12:46.978Z,23.29
2018-06-16T18:15:15.876Z,23.20
2018-06-16T18:17:45.141Z,23.08
2018-06-16T18:20:13.937Z,23.00
2018-06-16T18:22:43.013Z,22.79
2018-06-16T18:25:11.962Z,22.72
2018-06-16T18:27:41.074Z,22.63
2018-06-16T18:30:10.717Z,22.53
2018-06-16T18:32:40.209Z,22.45
2018-06-16T18:35:09.360Z,22.29
2018-06-16T18:37:38.467Z,22.21
2018-06-16T18:40:07.437Z,22.18
2018-06-16T18:42:36.235Z,22.17
2018-06-16T18:45:05.368Z,22.17
2018-06-16T18:47:34.533Z,22.14
2018-06-16T18:50:03.369Z,22.15
2018-06-16T18:52:32.638Z,22.10
2018-06-16T18:55:02.158Z,22.06
2018-06-16T18:57:31.677Z,21.99
2018-06-16T19:00:00.830Z,21.95
2018-06-16T19:02:29.675Z,21.89
2018-06-16T19:04:59.091Z,21.81
2018-06-16T19:07:27.953Z,21.73
2018-06-16T19:09:56.971Z,21.66
2018-06-16T19:12:25.833Z,21.64
2018-06-16T19:14:54.909Z,21.64
2018-06-16T19:17:24.077Z,21.55
2018-06-16T19:19:53.305Z,21.51
2018-06-16T19:22:22.507Z,21.47
2018-06-16T19:24:52.604Z,21.40
2018-06-16T19:27:21.450Z,21.40
2018-06-16T19:29:50.545Z,21.38
2018-06-16T19:32:20.150Z,21.39
2018-06-16T19:34:49.593Z,21.36
2018-06-16T19:37:18.709Z,21.30
2018-06-16T19:39:48.132Z,21.28
2018-06-16T19:42:17.473Z,21.23
2018-06-16T19:44:46.405Z,21.14
2018-06-16T19:47:15.821Z,21.07
2018-06-16T19:49:44.935Z,21.01
2018-06-16T19:52:14.001Z,20.93
2018-06-16T19:54:43.415Z,20.92
2018-06-16T19:59:40.771Z,20.87
2018-06-16T20:02:10.230Z,20.86
2018-06-16T20:04:39.098Z,20.87
2018-06-16T20:07:08.196Z,20.88
2018-06-16T20:09:37.372Z,20.88
2018-06-16T20:12:07.158Z,20.86
2018-06-16T20:14:36.934Z,20.84
2018-06-16T20:17:06.327Z,20.78
2018-06-16T20:19:36.143Z,20.66
2018-06-16T20:22:05.384Z,20.63
2018-06-16T20:24:34.398Z,20.58
2018-06-16T20:27:03.688Z,20.49
2018-06-16T20:29:32.521Z,20.45
2018-06-16T20:32:01.931Z,20.39
2018-06-16T20:34:31.932Z,20.34
2018-06-16T20:37:01.240Z,20.24
2018-06-16T20:39:30.520Z,20.20
2018-06-16T20:41:59.896Z,20.16
2018-06-16T20:44:29.083Z,20.14
2018-06-16T20:46:58.581Z,20.14
2018-06-16T20:49:27.403Z,20.14
2018-06-16T20:51:56.281Z,20.13
2018-06-16T20:54:25.932Z,20.12
2018-06-16T20:56:55.497Z,20.10
2018-06-16T20:59:24.330Z,20.10
2018-06-16T21:01:53.162Z,20.09
2018-06-16T21:04:23.123Z,20.07
2018-06-16T21:06:52.736Z,20.07
2018-06-16T21:09:21.939Z,20.07
2018-06-16T21:11:51.583Z,20.04
2018-06-16T21:14:20.704Z,20.00
2018-06-16T21:16:49.588Z,19.96
2018-06-16T21:19:19.054Z,19.94
2018-06-16T21:21:48.307Z,19.93
2018-06-16T21:24:17.138Z,19.90
2018-06-16T21:26:46.277Z,19.86
2018-06-16T21:29:15.622Z,19.84
2018-06-16T21:31:44.394Z,19.81
2018-06-16T21:34:13.275Z,19.79
2018-06-16T21:36:42.150Z,19.75
2018-06-16T21:39:11.654Z,19.73
2018-06-16T21:41:40.997Z,19.71
2018-06-16T21:44:10.221Z,19.68
2018-06-16T21:46:39.504Z,19.67
2018-06-16T21:49:08.861Z,19.64
2018-06-16T21:51:38.584Z,19.59
2018-06-16T21:54:08.710Z,19.54
2018-06-16T21:56:38.107Z,19.49
2018-06-16T21:59:07.326Z,19.45
2018-06-16T22:01:37.643Z,19.41
2018-06-16T22:04:07.354Z,19.33
2018-06-16T22:06:37.043Z,19.26
2018-06-16T22:09:08.898Z,19.21
2018-06-16T22:11:37.892Z,19.16
2018-06-16T22:14:07.125Z,19.09
2018-06-16T22:16:36.362Z,19.05
2018-06-16T22:19:05.704Z,19.00
2018-06-16T22:21:35.287Z,18.95
2018-06-16T22:24:04.136Z,18.91
2018-06-16T22:26:34.870Z,18.89
2018-06-16T22:29:06.408Z,18.86
2018-06-16T22:31:37.086Z,18.84
2018-06-16T22:34:06.642Z,18.80
2018-06-16T22:36:35.957Z,18.74
2018-06-16T22:39:06.932Z,18.70
2018-06-16T22:41:35.880Z,18.68
2018-06-16T22:44:05.370Z,18.65
2018-06-16T22:46:34.227Z,18.60
2018-06-16T22:49:03.643Z,18.54
2018-06-16T22:51:33.582Z,18.45
2018-06-16T22:54:03.297Z,18.42
2018-06-16T22:56:32.933Z,18.37
2018-06-16T22:59:01.890Z,18.33
2018-06-16T23:01:31.127Z,18.30
2018-06-16T23:04:00.803Z,18.28
2018-06-16T23:06:29.991Z,18.27
2018-06-16T23:08:58.842Z,18.24
2018-06-16T23:11:28.854Z,18.15
2018-06-16T23:13:58.232Z,18.06
2018-06-16T23:16:27.569Z,18.04
2018-06-16T23:18:56.800Z,17.99
2018-06-16T23:21:26.068Z,17.96
2018-06-16T23:23:54.955Z,17.95
2018-06-16T23:26:23.957Z,17.92
2018-06-16T23:28:52.891Z,17.86
2018-06-16T23:31:22.555Z,17.84
2018-06-16T23:33:51.741Z,17.85
2018-06-16T23:36:21.208Z,17.84
2018-06-16T23:38:50.228Z,17.82
2018-06-16T23:41:19.153Z,17.80
2018-06-16T23:43:48.127Z,17.79
2018-06-16T23:46:17.525Z,17.76
2018-06-16T23:48:46.867Z,17.69
2018-06-16T23:51:16.032Z,17.64
2018-06-16T23:53:45.255Z,17.62
2018-06-16T23:56:14.612Z,17.57
2018-06-16T23:58:44.380Z,17.55
